Flight Track Log - Related Links

Times and Time Zones

All times are in EDT time to prevent confusion due to time zone crossing. See the EJM622 flight status page for this flight to view local times or setup timezone preferences in your user account.

Time Position Orientation Groundspeed Altitude Reporting Facility
EDT Latitude Longitude Course Direction KTS MPH feet Rate Location/Type
Mon 02:13:54 PM 34.1500 -118.4667 55° Northeast 243 280 2,900  Level Southern TRACON
Mon 02:15:25 PM 34.2036 -118.3744 55° Northeast 282 325 7,100 2,510 Climbing Los Center
Mon 02:16:27 PM 34.2750 -118.4256 329° Northwest 297 342 9,300 2,226 Climbing Los Center
Mon 02:17:29 PM 34.3583 -118.4408 351° North 328 377 11,700 2,238 Climbing Los Center
Mon 02:18:33 PM 34.4339 -118.3619 41° Northeast 360 414 14,000 2,371 Climbing Los Center
Mon 02:19:33 PM 34.4881 -118.2592 57° Northeast 371 427 16,600 2,585 Climbing Los Center
Mon 02:20:36 PM 34.5242 -118.1272 72° East 375 432 19,300 2,304 Climbing Los Center
Mon 02:21:38 PM 34.5589 -118.0078 71° East 377 434 21,400 1,742 Climbing Los Center
Mon 02:22:40 PM 34.5961 -117.8819 70° East 397 457 22,900 1,452 Climbing Los Center
Mon 02:23:42 PM 34.6331 -117.7486 71° East 416 479 24,400 1,597 Climbing Los Center
Mon 02:24:44 PM 34.6792 -117.5844 71° East 432 497 26,200 1,597 Climbing Los Center
Mon 02:25:46 PM 34.7189 -117.4444 71° East 441 507 27,700 1,452 Climbing Los Center
Mon 02:26:48 PM 34.7597 -117.3017 71° East 453 521 29,200 1,210 Climbing Los Center
Mon 02:27:50 PM 34.8008 -117.1547 71° East 463 533 30,200 1,008 Climbing Los Center
Mon 02:28:53 PM 34.8850 -116.9942 57° Northeast 478 550 31,300 1,008 Climbing Los Center
Mon 02:29:55 PM 34.9706 -116.8664 51° Northeast 487 560 32,300 968 Climbing Los Center
Mon 02:30:57 PM 35.0581 -116.7347 51° Northeast 499 574 33,300 968 Climbing Los Center
Mon 02:31:59 PM 35.1433 -116.6053 51° Northeast 497 572 34,300 968 Climbing Los Center
Mon 02:33:01 PM 35.2286 -116.4750 51° Northeast 493 567 35,300 919 Climbing Los Center
Mon 02:34:03 PM 35.3297 -116.3175 52° Northeast 493 567 36,200 823 Climbing Los Center
Mon 02:35:05 PM 35.4161 -116.1889 50° Northeast 492 566 37,000 823 Climbing Los Center
Mon 02:36:07 PM 35.4994 -116.0597 52° Northeast 487 560 37,900 768 Climbing Los Center
Mon 02:37:10 PM 35.5819 -115.9292 52° Northeast 486 559 38,600 624 Climbing Los Center
Mon 02:38:12 PM 35.6711 -115.7922 51° Northeast 479 551 39,200 532 Climbing Los Center
Mon 02:39:14 PM 35.7544 -115.6658 51° Northeast 478 550 39,700 484 Climbing Los Center
Mon 02:40:16 PM 35.8372 -115.5392 51° Northeast 476 548 40,200 435 Climbing Los Center
Mon 02:41:18 PM 35.9169 -115.4119 52° Northeast 474 545 40,600 339 Climbing Los Center
Mon 02:42:20 PM 36.0122 -115.2622 52° Northeast 464 534 40,900 194 Climbing Los Center
Mon 02:43:22 PM 36.0847 -115.1389 54° Northeast 464 534 41,000 48 Climbing Los Center
Mon 02:44:24 PM 36.1328 -114.9797 69° East 472 543 41,000  Level Los Center
Mon 02:45:27 PM 36.1792 -114.8278 69° East 473 544 41,000  Level Los Center
Mon 02:46:29 PM 36.2347 -114.6433 69° East 477 549 41,000  Level Los Center
Mon 02:47:31 PM 36.2814 -114.4914 69° East 474 545 41,000  Level Los Center
Mon 02:48:33 PM 36.3275 -114.3397 69° East 472 543 41,000  Level Los Center
Mon 02:49:35 PM 36.3731 -114.1883 69° East 470 541 41,000  Level Los Center
Mon 02:50:37 PM 36.4175 -114.0361 70° East 469 540 41,000  Level Los Center
Mon 02:51:39 PM 36.4622 -113.8850 70° East 467 537 41,000  Level Los Center
Mon 02:52:42 PM 36.5147 -113.7111 69° East 465 535 41,000  Level Los Center
Mon 02:53:44 PM 36.5586 -113.5600 70° East 465 535 41,000  Level Los Center
Mon 02:54:46 PM 36.6033 -113.4111 69° East 463 533 41,000  Level Los Center
Mon 02:55:48 PM 36.6467 -113.2606 70° East 464 534 41,000  Level Los Center
Mon 02:56:50 PM 36.6994 -113.0803 70° East 464 534 41,000  Level Los Center
Mon 02:57:52 PM 36.7431 -112.9303 70° East 463 533 41,000  Level Los Center
Mon 02:58:54 PM 36.7858 -112.7817 70° East 460 529 41,000  Level Los Center
Mon 02:59:57 PM 36.8294 -112.6328 70° East 460 529 41,000  Level Los Center
Mon 03:00:59 PM 36.8722 -112.4831 70° East 460 529 41,000  Level Los Center
Mon 03:02:01 PM 36.9222 -112.3042 71° East 459 528 41,000  Level Los Center
Mon 03:03:03 PM 36.9650 -112.1556 70° East 458 527 41,000  Level Los Center
Mon 03:04:05 PM 37.0083 -112.0067 70° East 458 527 41,000 -242 Level Los Center
Mon 03:05:07 PM 37.0497 -111.8550 71° East 461 531 40,500 -629 Descending Los Center
Mon 03:06:09 PM 37.0844 -111.7292 71° East 470 541 39,700 -968 Descending Los Center
Mon 03:06:40 PM 37.1183 -111.5992 72° East 489 563 39,000 -452 Descending Denver Center
Mon 03:07:42 PM 37.1522 -111.4689 72° East 495 570 39,000  Level Denver Center
Mon 03:08:44 PM 37.2056 -111.2711 71° East 498 573 39,000  Level Denver Center
Mon 03:09:46 PM 37.2581 -111.0781 71° East 489 563 39,000  Level Denver Center
Mon 03:10:48 PM 37.3019 -110.9147 71° East 493 567 39,000  Level Denver Center
Mon 03:11:50 PM 37.3447 -110.7531 72° East 491 565 39,000  Level Denver Center
Mon 03:12:52 PM 37.3886 -110.5886 71° East 498 573 39,000  Level Denver Center
Mon 03:13:54 PM 37.4317 -110.4258 72° East 493 567 39,000  Level Denver Center
Mon 03:14:56 PM 37.4650 -110.2933 72° East 497 572 39,000  Level Denver Center
Mon 03:15:58 PM 37.5228 -110.0728 72° East 491 565 39,000  Level Denver Center
Mon 03:17:00 PM 37.5622 -109.9139 73° East 494 568 39,000  Level Denver Center
Mon 03:18:02 PM 37.6100 -109.7297 72° East 494 568 39,000  Level Denver Center
Mon 03:19:04 PM 37.6497 -109.5700 73° East 497 572 39,000  Level Denver Center
Mon 03:20:06 PM 37.6969 -109.3867 72° East 492 566 39,000  Level Denver Center
Mon 03:21:08 PM 37.7361 -109.2261 73° East 497 572 39,000  Level Denver Center
Mon 03:22:22 PM 37.7747 -109.0681 73° East 493 567 39,000  Level Denver Center
Mon 03:23:24 PM 37.8319 -108.8581 71° East 494 568 39,000  Level Denver Center
Mon 03:24:26 PM 37.8961 -108.6819 65° Northeast 492 566 39,000  Level Denver Center
Mon 03:25:27 PM 37.9400 -108.5564 66° East 490 564 39,000  Level Denver Center
Mon 03:26:30 PM 38.0097 -108.3536 66° East 492 566 39,000  Level Denver Center
Mon 03:27:32 PM 38.0619 -108.2014 66° East 492 566 39,000  Level Denver Center
Mon 03:28:34 PM 38.1172 -108.0381 67° East 491 565 39,000  Level Denver Center
Mon 03:29:36 PM 38.1694 -107.8867 66° East 489 563 39,000  Level Denver Center
Mon 03:30:38 PM 38.2283 -107.7100 67° East 487 560 39,000  Level Denver Center
Mon 03:31:40 PM 38.2800 -107.5592 66° East 487 560 39,000  Level Denver Center
Mon 03:32:42 PM 38.3383 -107.3808 67° East 489 563 39,000  Level Denver Center
Mon 03:33:44 PM 38.3889 -107.2314 67° East 482 555 39,000  Level Denver Center
Mon 03:34:46 PM 38.4472 -107.0539 67° East 487 560 39,000  Level Denver Center
Mon 03:36:00 PM 38.4817 -106.8925 75° East 488 562 39,000  Level Denver Center
Mon 03:37:02 PM 38.5206 -106.6931 76° East 486 559 39,000  Level Denver Center
Mon 03:38:04 PM 38.5533 -106.5261 76° East 486 559 39,000  Level Denver Center
Mon 03:39:18 PM 38.5847 -106.3603 76° East 483 556 39,000  Level Denver Center
Mon 03:40:20 PM 38.6333 -106.1147 76° East 490 564 39,000  Level Denver Center
Mon 03:41:22 PM 38.6581 -105.9800 77° East 489 563 39,000  Level Denver Center
Mon 03:42:24 PM 38.6969 -105.7775 76° East 489 563 39,000  Level Denver Center
Mon 03:43:26 PM 38.7289 -105.6100 76° East 486 559 39,000 48 Level Denver Center
Mon 03:44:28 PM 38.7586 -105.4408 77° East 490 564 39,100 387 Climbing Denver Center
Mon 03:45:30 PM 38.7903 -105.2739 76° East 486 559 39,800 677 Climbing Denver Center
Mon 03:46:32 PM 38.8272 -105.0772 76° East 478 550 40,500 484 Climbing Denver Center
Mon 03:47:34 PM 38.8561 -104.9125 77° East 477 549 40,800 242 Climbing Denver Center
Mon 03:48:36 PM 38.8861 -104.7500 77° East 472 543 41,000 97 Climbing Denver Center
Mon 03:49:38 PM 38.9144 -104.5881 77° East 469 540 41,000  Level Denver Center
Mon 03:50:40 PM 38.9425 -104.4297 77° East 462 532 41,000  Level Denver Center
Mon 03:51:55 PM 38.9756 -104.2394 77° East 458 527 41,000  Level Denver Center
Mon 03:52:57 PM 39.0083 -104.0506 77° East 455 524 41,000  Level Denver Center
Mon 03:53:59 PM 39.0356 -103.8933 77° East 454 522 41,000  Level Denver Center
Mon 03:55:01 PM 39.0622 -103.7356 78° East 456 525 41,000  Level Denver Center
Mon 03:56:03 PM 39.0886 -103.5772 78° East 455 524 41,000  Level Denver Center
Mon 03:57:05 PM 39.1203 -103.3853 78° East 458 527 41,000  Level Denver Center
Mon 03:58:19 PM 39.1469 -103.2247 78° East 461 531 41,000  Level Denver Center
Mon 03:59:21 PM 39.1792 -103.0317 78° East 462 532 41,000  Level Denver Center
Mon 04:00:23 PM 39.2056 -102.8694 78° East 464 534 41,000  Level Denver Center
Mon 04:01:25 PM 39.2325 -102.6953 79° East 467 537 41,000  Level Denver Center
Mon 04:02:27 PM 39.2622 -102.5117 78° East 468 539 41,000  Level Denver Center
Mon 04:03:29 PM 39.2864 -102.3528 79° East 471 542 41,000  Level Denver Center
Mon 04:04:31 PM 39.3114 -102.1942 78° East 471 542 41,000  Level Denver Center
Mon 04:05:33 PM 39.3331 -102.0503 79° East 470 541 41,000  Level Denver Center
Mon 04:06:35 PM 39.3617 -101.8683 78° East 465 535 41,000  Level Denver Center
Mon 04:07:37 PM 39.3906 -101.6850 78° East 466 536 41,000  Level Denver Center
Mon 04:08:39 PM 39.4483 -101.5136 66° East 468 539 41,000  Level Denver Center
Mon 04:09:41 PM 39.4975 -101.3675 66° East 466 536 41,000  Level Denver Center
Mon 04:10:55 PM 39.5550 -101.1953 67° East 468 539 41,000  Level Denver Center
Mon 04:11:57 PM 39.6208 -100.9986 66° East 466 536 41,000  Level Denver Center
Mon 04:12:59 PM 39.6697 -100.8461 67° East 477 549 41,000  Level Denver Center
Mon 04:14:01 PM 39.7197 -100.6967 66° East 476 548 41,000  Level Denver Center
Mon 04:15:04 PM 39.7769 -100.5225 67° East 473 544 41,000  Level Denver Center
Mon 04:16:05 PM 39.8256 -100.3697 67° East 476 548 41,000  Level Denver Center
Mon 04:17:07 PM 39.8783 -100.2069 67° East 475 547 41,000  Level Denver Center
Mon 04:18:09 PM 39.9286 -100.0478 68° East 476 548 41,000  Level Denver Center
Mon 04:19:11 PM 39.9897 -99.8572 67° East 477 549 41,000  Level Denver Center
Mon 04:20:13 PM 40.0406 -99.6986 67° East 476 548 41,000  Level Denver Center
Mon 04:21:14 PM 40.0897 -99.5397 68° East 474 545 41,000  Level Denver Center
Mon 04:22:16 PM 40.1389 -99.3817 68° East 470 541 41,000  Level Denver Center
Mon 04:23:18 PM 40.1786 -99.2550 68° East 471 542 41,000  Level Denver Center
Mon 04:24:20 PM 40.2375 -99.0650 68° East 471 542 41,000  Level Denver Center
Mon 04:24:57 PM 40.2522 -98.9669 79° East 469 540 41,000  Level Minneapolis Center
Mon 04:25:59 PM 40.2792 -98.7647 80° East 471 542 41,000  Level Minneapolis Center
Mon 04:27:01 PM 40.3025 -98.5953 80° East 474 545 41,000  Level Minneapolis Center
Mon 04:28:03 PM 40.3253 -98.4267 80° East 475 547 41,000  Level Minneapolis Center
Mon 04:29:05 PM 40.3481 -98.2581 80° East 473 544 41,000  Level Minneapolis Center
Mon 04:30:07 PM 40.3700 -98.0886 80° East 473 544 41,000  Level Minneapolis Center
Mon 04:31:09 PM 40.3917 -97.9200 80° East 472 543 41,000  Level Minneapolis Center
Mon 04:32:11 PM 40.4172 -97.7181 80° East 470 541 41,000  Level Minneapolis Center
Mon 04:33:13 PM 40.4394 -97.5494 80° East 470 541 41,000  Level Minneapolis Center
Mon 04:34:15 PM 40.4600 -97.3806 81° East 470 541 41,000  Level Minneapolis Center
Mon 04:35:17 PM 40.4831 -97.1967 81° East 471 542 41,000  Level Minneapolis Center
Mon 04:36:19 PM 40.5044 -97.0278 80° East 471 542 41,000  Level Minneapolis Center
Mon 04:37:21 PM 40.5233 -96.8569 82° East 473 544 41,000  Level Minneapolis Center
Mon 04:38:23 PM 40.5439 -96.6867 81° East 473 544 41,000  Level Minneapolis Center
Mon 04:39:25 PM 40.5644 -96.5158 81° East 475 547 41,000  Level Minneapolis Center
Mon 04:40:27 PM 40.5875 -96.3108 82° East 475 547 41,000  Level Minneapolis Center
Mon 04:41:30 PM 40.6072 -96.1392 81° East 477 549 41,000  Level Minneapolis Center
Mon 04:42:32 PM 40.6264 -95.9686 82° East 476 548 41,000  Level Minneapolis Center
Mon 04:43:34 PM 40.6453 -95.8000 82° East 472 543 41,000  Level Minneapolis Center
Mon 04:44:48 PM 40.6644 -95.6328 81° East 466 536 41,000  Level Minneapolis Center
Mon 04:45:50 PM 40.6889 -95.3992 82° East 464 534 41,000  Level Minneapolis Center
Mon 04:46:52 PM 40.7075 -95.2319 82° East 463 533 41,000  Level Minneapolis Center
Mon 04:47:54 PM 40.7256 -95.0625 82° East 467 537 41,000  Level Minneapolis Center
Mon 04:48:56 PM 40.7428 -94.8919 82° East 471 542 41,000  Level Minneapolis Center
Mon 04:49:59 PM 40.7600 -94.7197 82° East 474 545 41,000  Level Minneapolis Center
Mon 04:51:01 PM 40.7803 -94.5203 82° East 476 548 41,000  Level Minneapolis Center
Mon 04:52:03 PM 40.7961 -94.3503 83° East 474 545 41,000  Level Minneapolis Center
Mon 04:53:05 PM 40.8128 -94.1783 83° East 473 544 41,000  Level Minneapolis Center
Mon 04:54:07 PM 40.8311 -94.0047 82° East 479 551 41,000  Level Minneapolis Center
Mon 04:55:09 PM 40.8456 -93.8333 84° East 476 548 41,000  Level Minneapolis Center
Mon 04:56:11 PM 40.8631 -93.6261 84° East 477 549 41,000  Level Minneapolis Center
Mon 04:57:25 PM 40.8822 -93.4506 82° East 480 552 41,000  Level Minneapolis Center
Mon 04:58:28 PM 40.9150 -93.2453 78° East 478 550 41,000  Level Minneapolis Center
Mon 04:59:30 PM 40.9414 -93.0736 78° East 479 551 41,000  Level Minneapolis Center
Mon 05:00:32 PM 40.9669 -92.9003 79° East 479 551 41,000  Level Minneapolis Center
Mon 05:01:34 PM 40.9961 -92.6947 79° East 478 550 41,000  Level Minneapolis Center
Mon 05:02:36 PM 41.0111 -92.5217 83° East 475 547 41,000 -242 Level Minneapolis Center
Mon 05:03:38 PM 41.0203 -92.3469 86° East 478 550 40,500 -1,355 Descending Minneapolis Center
Mon 05:04:40 PM 41.0319 -92.1694 85° East 482 555 38,200 -2,371 Descending Minneapolis Center
Mon 05:05:42 PM 41.0422 -91.9881 86° East 490 564 35,600 -2,419 Descending Minneapolis Center
Mon 05:06:44 PM 41.0522 -91.8081 86° East 494 568 33,200 -1,957 Descending Minneapolis Center
Mon 05:08:00 PM 41.0669 -91.5619 85° East 485 558 31,100 -957 Descending Chicago Center
Mon 05:09:02 PM 41.0778 -91.3825 85° East 486 559 31,000 -48 Descending Chicago Center
Mon 05:10:04 PM 41.0861 -91.2014 86° East 490 564 31,000 -1,016 Level Chicago Center
Mon 05:11:06 PM 41.0961 -91.0156 86° East 503 579 28,900 -2,468 Descending Chicago Center
Mon 05:12:08 PM 41.1050 -90.8325 86° East 498 573 25,900 -2,352 Descending Chicago Center
Mon 05:13:11 PM 41.1156 -90.6197 86° East 483 556 24,000 -1,344 Descending Chicago Center
Mon 05:14:13 PM 41.1253 -90.4481 86° East 470 541 23,100 -1,258 Descending Chicago Center
Mon 05:15:15 PM 41.1322 -90.2750 87° East 468 539 21,400 -1,645 Descending Chicago Center
Mon 05:16:17 PM 41.1400 -90.1053 86° East 462 532 19,700 -1,597 Descending Chicago Center
Mon 05:17:19 PM 41.1472 -89.9356 87° East 459 528 18,100 -1,500 Descending Chicago Center
Mon 05:18:21 PM 41.1536 -89.7703 87° East 449 517 16,600 -1,403 Descending Chicago Center
Mon 05:19:23 PM 41.1608 -89.6114 86° East 434 499 15,200 -774 Descending Chicago Center
Mon 05:20:25 PM 41.1728 -89.4283 85° East 417 480 15,000 -629 Descending Chicago Center
Mon 05:21:27 PM 41.1956 -89.2819 78° East 417 480 13,900 -1,008 Descending Chicago Center
Mon 05:22:30 PM 41.2461 -89.1506 63° Northeast 396 456 12,900 -1,200 Descending Chicago Center
Mon 05:23:32 PM 41.2931 -89.0206 64° Northeast 392 451 11,400 -1,355 Descending Chicago Center
Mon 05:24:34 PM 41.3378 -88.8972 64° Northeast 378 435 10,100 -1,016 Descending Chicago Center
Mon 05:25:36 PM 41.3814 -88.7744 65° Northeast 371 427 9,300 -1,210 Descending Chicago Center
Mon 05:26:38 PM 41.4250 -88.6447 66° East 328 377 7,600 -1,500 Descending Chicago Center
Mon 05:27:40 PM 41.4494 -88.5344 73° East 315 362 6,200 -774 Descending Chicago Center
Mon 05:28:42 PM 41.4736 -88.4261 73° East 311 358 6,000 -97 Descending Chicago Center
Mon 05:29:44 PM 41.4978 -88.3189 73° East 306 352 6,000  Level Chicago Center
Mon 05:30:46 PM 41.5219 -88.2108 73° East 304 350 6,000  Level Chicago Center
Mon 05:31:48 PM 41.5467 -88.1003 73° East 305 351 6,000 -435 Level Chicago Center
Mon 05:32:50 PM 41.5689 -87.9867 75° East 313 360 5,100 -480 Descending Chicago Center
Mon 05:33:53 PM 41.5750 -87.8517 86° East 306 352 5,000 -48 Descending Chicago Center
Mon 05:34:55 PM 41.5811 -87.7439 86° East 298 343 5,000 -484 Level Chicago Center
Mon 05:35:57 PM 41.6236 -87.6669 54° Northeast 279 321 4,000 -968 Descending Chicago Center
Mon 05:36:59 PM 41.6772 -87.6078 39° Northeast 268 308 3,000 -823 Descending Chicago Center
Mon 05:38:01 PM 41.7186 -87.6564 319° Northwest 227 261 2,300 -677 Descending Chicago Center
Mon 05:39:03 PM 41.7675 -87.6947 330° Northwest 207 238 1,600 -484 Descending Chicago Center
Mon 05:40:05 PM 41.8100 -87.7056 349° North 194 223 1,300 -290 Descending Chicago Center
Mon 05:41:07 PM 41.7867 -87.7514 236° Southwest 185 213 1,000 -290 Descending Chicago Center

Login

Don't have an account? Register now (free) for customized features, flight alerts, and more!